createdAt,value
2019-02-27T00:02:31.757Z,45.60
2019-02-27T00:05:33.551Z,45.70
2019-02-27T00:08:35.407Z,45.60
2019-02-27T00:11:36.851Z,45.60
2019-02-27T00:14:38.307Z,45.60
2019-02-27T00:17:39.892Z,45.70
2019-02-27T00:20:41.331Z,45.70
2019-02-27T00:23:42.831Z,45.70
2019-02-27T00:26:44.217Z,45.80
2019-02-27T00:29:45.643Z,45.70
2019-02-27T00:32:51.026Z,45.80
2019-02-27T00:35:50.938Z,45.70
2019-02-27T00:38:52.402Z,45.80
2019-02-27T00:41:53.911Z,45.70
2019-02-27T00:44:56.049Z,45.70
2019-02-27T00:47:57.549Z,45.80
2019-02-27T00:50:58.977Z,45.90
2019-02-27T00:54:00.400Z,45.90
2019-02-27T00:57:01.877Z,46.00
2019-02-27T01:00:06.275Z,45.90
2019-02-27T01:03:07.128Z,45.90
2019-02-27T01:06:08.977Z,45.90
2019-02-27T01:09:10.939Z,46.00
2019-02-27T01:12:13.731Z,46.10
2019-02-27T01:15:15.599Z,46.00
2019-02-27T01:18:17.008Z,46.10
2019-02-27T01:21:19.945Z,46.10
2019-02-27T01:24:21.482Z,46.10
2019-02-27T01:27:23.928Z,46.10
2019-02-27T01:30:25.393Z,46.10
2019-02-27T01:33:26.787Z,46.10
2019-02-27T01:36:28.181Z,46.10
2019-02-27T01:39:29.608Z,46.20
2019-02-27T01:42:32.854Z,46.20
2019-02-27T01:45:34.359Z,46.20
2019-02-27T01:48:35.865Z,46.20
2019-02-27T01:51:38.680Z,46.30
2019-02-27T01:54:40.467Z,46.20
2019-02-27T01:57:41.862Z,46.30
2019-02-27T02:00:43.335Z,46.30
2019-02-27T02:03:47.265Z,46.40
2019-02-27T02:06:48.033Z,46.30
2019-02-27T02:09:55.049Z,46.30
2019-02-27T02:13:15.169Z,46.30
2019-02-27T02:17:11.276Z,46.60
2019-02-27T02:21:01.817Z,46.30
2019-02-27T02:24:47.071Z,46.40
2019-02-27T02:28:40.991Z,46.50
2019-02-27T02:32:18.272Z,46.40
2019-02-27T02:36:11.221Z,46.50
2019-02-27T02:40:30.814Z,46.40
2019-02-27T02:44:34.484Z,46.40
2019-02-27T02:48:50.704Z,46.40
2019-02-27T02:52:31.613Z,46.40
2019-02-27T02:56:51.703Z,46.50
2019-02-27T03:00:47.909Z,46.50
2019-02-27T03:05:23.333Z,46.50
2019-02-27T03:09:22.074Z,46.50
2019-02-27T03:13:25.478Z,46.50
2019-02-27T03:17:18.426Z,46.60
2019-02-27T03:20:45.420Z,46.70
2019-02-27T03:24:36.300Z,46.60
2019-02-27T03:28:40.668Z,46.60
2019-02-27T03:32:06.897Z,46.60
2019-02-27T03:35:56.397Z,46.70
2019-02-27T03:39:34.334Z,46.70
2019-02-27T03:43:29.804Z,46.60
2019-02-27T03:47:52.965Z,46.70
2019-02-27T03:51:46.705Z,46.70
2019-02-27T03:55:32.845Z,46.70
2019-02-27T03:59:42.146Z,46.70
2019-02-27T04:03:33.953Z,46.80
2019-02-27T04:07:35.661Z,46.60
2019-02-27T04:10:37.053Z,46.80
2019-02-27T04:13:38.425Z,46.70
2019-02-27T04:16:39.877Z,46.70
2019-02-27T04:19:41.318Z,46.70
2019-02-27T04:22:42.705Z,46.80
2019-02-27T04:25:44.115Z,46.70
2019-02-27T04:28:45.450Z,46.80
2019-02-27T04:31:46.980Z,46.70
2019-02-27T04:34:48.720Z,46.80
2019-02-27T04:37:54.119Z,46.80
2019-02-27T04:40:53.860Z,46.80
2019-02-27T04:43:55.306Z,46.90
2019-02-27T04:46:56.683Z,46.80
2019-02-27T04:49:58.134Z,46.80
2019-02-27T04:52:59.586Z,46.80
2019-02-27T04:56:00.974Z,46.80
2019-02-27T04:59:02.339Z,46.90
2019-02-27T05:02:04.502Z,46.80
2019-02-27T05:05:08.598Z,46.90
2019-02-27T05:08:10.206Z,46.80
2019-02-27T05:11:13.943Z,46.90
2019-02-27T05:14:15.326Z,47.00
2019-02-27T05:17:21.193Z,46.90
2019-02-27T05:20:19.806Z,46.90
2019-02-27T05:23:21.270Z,47.60
2019-02-27T05:26:27.092Z,46.90
2019-02-27T05:29:26.069Z,46.90
2019-02-27T05:32:28.258Z,46.90
2019-02-27T05:35:30.766Z,46.90
2019-02-27T05:38:32.163Z,46.90
2019-02-27T05:41:33.774Z,46.90
2019-02-27T05:44:35.150Z,47.00
2019-02-27T05:47:36.683Z,46.90
2019-02-27T05:50:38.160Z,47.00
2019-02-27T05:53:39.501Z,47.00
2019-02-27T05:56:40.866Z,46.90
2019-02-27T05:59:42.300Z,47.00
2019-02-27T06:02:45.008Z,47.10
2019-02-27T06:05:49.634Z,47.10
2019-02-27T06:08:50.227Z,47.00
2019-02-27T06:11:51.586Z,47.10
2019-02-27T06:14:54.992Z,47.10
2019-02-27T06:17:56.704Z,47.10
2019-02-27T06:20:58.943Z,47.00
2019-02-27T06:24:00.510Z,47.10
2019-02-27T06:27:06.097Z,47.00
2019-02-27T06:30:05.946Z,47.10
2019-02-27T06:33:11.590Z,47.20
2019-02-27T06:36:11.516Z,47.10
2019-02-27T06:39:13.026Z,47.20
2019-02-27T06:42:14.535Z,47.30
2019-02-27T06:45:18.341Z,47.10
2019-02-27T06:48:19.738Z,47.30
2019-02-27T06:51:21.600Z,47.20
2019-02-27T06:54:22.957Z,47.30
2019-02-27T06:57:24.451Z,47.30
2019-02-27T07:00:25.946Z,47.20
2019-02-27T07:03:29.559Z,47.30
2019-02-27T07:06:30.587Z,47.50
2019-02-27T07:09:32.016Z,47.60
2019-02-27T07:12:33.401Z,47.60
2019-02-27T07:15:34.824Z,47.60
2019-02-27T07:18:36.533Z,48.10
2019-02-27T07:21:38.074Z,47.70
2019-02-27T07:24:39.863Z,48.40
2019-02-27T07:27:41.328Z,47.80
2019-02-27T07:30:43.277Z,47.90
2019-02-27T07:33:45.127Z,47.80
2019-02-27T07:36:46.588Z,47.80
2019-02-27T07:39:48.011Z,47.80
2019-02-27T07:42:49.394Z,47.90
2019-02-27T07:45:50.829Z,47.90
2019-02-27T07:48:56.451Z,48.00
2019-02-27T07:51:57.916Z,48.00
2019-02-27T07:54:58.884Z,47.90
2019-02-27T07:58:00.380Z,48.00
2019-02-27T08:01:01.919Z,47.90
2019-02-27T08:04:04.434Z,47.90
2019-02-27T08:07:05.842Z,47.80
2019-02-27T08:10:10.770Z,47.90
2019-02-27T08:13:12.158Z,47.80
2019-02-27T08:16:13.566Z,47.70
2019-02-27T08:19:15.136Z,47.90
2019-02-27T08:22:16.635Z,48.00
2019-02-27T08:25:18.115Z,48.10
2019-02-27T08:28:19.619Z,48.00
2019-02-27T08:31:21.068Z,48.10
2019-02-27T08:34:22.471Z,47.70
2019-02-27T08:37:23.986Z,47.70
2019-02-27T08:40:25.419Z,48.30
2019-02-27T08:43:26.853Z,48.00
2019-02-27T08:46:28.341Z,47.60
2019-02-27T08:49:31.808Z,47.60
2019-02-27T08:52:33.553Z,47.40
2019-02-27T08:55:39.057Z,47.20
2019-02-27T08:58:41.182Z,47.10
2019-02-27T09:01:43.927Z,47.00
2019-02-27T09:04:47.055Z,46.80
2019-02-27T09:07:50.446Z,46.70
2019-02-27T09:10:53.488Z,46.70
2019-02-27T09:14:01.959Z,46.60
2019-02-27T09:17:00.528Z,46.50
2019-02-27T09:20:02.225Z,46.30
2019-02-27T09:23:04.250Z,46.30
2019-02-27T09:26:05.756Z,46.40
2019-02-27T09:29:07.118Z,46.40
2019-02-27T09:32:11.402Z,46.30
2019-02-27T09:35:13.046Z,46.10
2019-02-27T09:38:14.696Z,46.00
2019-02-27T09:41:16.563Z,45.90
2019-02-27T09:44:18.348Z,45.90
2019-02-27T09:47:20.068Z,45.70
2019-02-27T09:50:34.879Z,45.60
2019-02-27T09:53:37.440Z,45.50
2019-02-27T09:56:39.170Z,45.30
2019-02-27T09:59:40.751Z,45.10
2019-02-27T10:02:43.192Z,45.00
2019-02-27T10:05:45.475Z,44.80
2019-02-27T10:08:46.995Z,44.60
2019-02-27T10:11:48.518Z,44.40
2019-02-27T10:14:50.274Z,44.30
2019-02-27T10:17:52.805Z,44.20
2019-02-27T10:20:54.292Z,44.20
2019-02-27T10:23:55.727Z,44.00
2019-02-27T10:26:57.159Z,43.90
2019-02-27T10:29:58.774Z,43.80
2019-02-27T10:33:00.233Z,43.70
2019-02-27T10:36:03.647Z,43.50
2019-02-27T10:39:06.588Z,43.40
2019-02-27T10:42:10.118Z,43.40
2019-02-27T10:45:14.903Z,43.20
2019-02-27T10:48:16.855Z,43.10
2019-02-27T10:51:18.515Z,43.00
2019-02-27T10:54:20.073Z,43.00
2019-02-27T10:57:23.205Z,42.90
2019-02-27T11:00:29.809Z,42.80
2019-02-27T11:03:31.628Z,42.90
2019-02-27T11:06:34.244Z,44.40
2019-02-27T11:09:41.207Z,45.90
2019-02-27T11:12:41.902Z,46.00
2019-02-27T11:15:44.817Z,46.20
2019-02-27T11:18:46.964Z,43.50
2019-02-27T11:21:49.641Z,42.50
2019-02-27T11:24:52.500Z,40.60
2019-02-27T11:27:55.892Z,40.70
2019-02-27T11:30:59.619Z,39.90
2019-02-27T11:34:01.246Z,40.90
2019-02-27T11:37:04.408Z,40.90
2019-02-27T11:40:07.887Z,40.80
2019-02-27T11:43:09.907Z,39.40
2019-02-27T11:46:11.860Z,39.00
2019-02-27T11:49:13.531Z,38.90
2019-02-27T11:52:15.010Z,39.10
2019-02-27T11:55:17.398Z,39.50
2019-02-27T11:58:19.475Z,38.60
2019-02-27T12:01:22.740Z,38.90
2019-02-27T12:04:24.342Z,38.90
2019-02-27T12:07:25.951Z,37.90
2019-02-27T12:10:30.702Z,38.40
2019-02-27T12:13:32.366Z,38.90
2019-02-27T12:16:35.532Z,37.90
2019-02-27T12:19:37.151Z,38.30
2019-02-27T12:22:38.731Z,38.70
2019-02-27T12:25:40.309Z,37.60
2019-02-27T12:28:42.050Z,37.50
2019-02-27T12:31:48.177Z,36.20
2019-02-27T12:34:48.352Z,37.50
2019-02-27T12:37:50.217Z,37.20
2019-02-27T12:40:52.903Z,37.60
2019-02-27T12:43:54.433Z,36.70
2019-02-27T12:46:56.147Z,36.00
2019-02-27T12:49:57.900Z,35.00
2019-02-27T12:53:01.332Z,32.80
2019-02-27T12:56:07.812Z,34.60
2019-02-27T12:59:08.985Z,33.10
2019-02-27T13:02:10.927Z,33.50
2019-02-27T13:05:14.200Z,32.50
2019-02-27T13:08:16.312Z,31.80
2019-02-27T13:11:22.825Z,31.50
2019-02-27T13:14:24.420Z,32.30
2019-02-27T13:17:26.206Z,32.80
2019-02-27T13:20:28.518Z,31.10
2019-02-27T13:23:30.048Z,33.10
2019-02-27T13:26:34.752Z,32.90
2019-02-27T13:29:35.251Z,32.90
2019-02-27T13:32:38.516Z,30.70
2019-02-27T13:35:40.329Z,30.90
2019-02-27T13:38:41.946Z,31.30
2019-02-27T13:41:45.543Z,31.60
2019-02-27T13:44:46.687Z,32.10
2019-02-27T13:47:48.260Z,30.50
2019-02-27T13:50:49.861Z,30.30
2019-02-27T13:53:51.372Z,33.10
2019-02-27T13:56:53.254Z,32.00
2019-02-27T13:59:55.829Z,31.50
2019-02-27T14:02:57.415Z,32.30
2019-02-27T14:05:59.008Z,30.50
2019-02-27T14:09:00.666Z,31.20
2019-02-27T14:12:03.861Z,31.70
2019-02-27T14:15:06.490Z,30.20
2019-02-27T14:18:08.983Z,29.80
2019-02-27T14:21:10.695Z,30.00
2019-02-27T14:24:12.251Z,29.00
2019-02-27T14:27:14.590Z,28.70
2019-02-27T14:30:24.481Z,29.70
2019-02-27T14:33:26.088Z,30.00
2019-02-27T14:36:27.580Z,29.70
2019-02-27T14:39:29.643Z,28.60
2019-02-27T14:42:33.525Z,28.20
2019-02-27T14:45:39.732Z,28.40
2019-02-27T14:48:39.150Z,28.50
2019-02-27T14:51:41.707Z,29.10
2019-02-27T14:54:43.366Z,27.70
2019-02-27T14:57:49.919Z,28.80
2019-02-27T15:00:48.446Z,28.00
2019-02-27T15:03:50.112Z,28.80
2019-02-27T15:06:51.885Z,27.40
2019-02-27T15:09:53.425Z,28.70
2019-02-27T15:12:55.663Z,27.40
2019-02-27T15:15:57.420Z,27.50
2019-02-27T15:18:59.705Z,27.40
2019-02-27T15:22:01.442Z,27.80
2019-02-27T15:25:07.917Z,28.40
2019-02-27T15:28:07.016Z,27.10
2019-02-27T15:31:09.145Z,27.70
2019-02-27T15:34:13.672Z,27.40
2019-02-27T15:37:15.602Z,26.80
2019-02-27T15:40:20.032Z,26.90
2019-02-27T15:43:21.887Z,26.30
2019-02-27T15:46:25.045Z,26.30
2019-02-27T15:49:26.624Z,25.90
2019-02-27T15:52:28.179Z,25.20
2019-02-27T15:55:34.180Z,25.80
2019-02-27T15:58:35.880Z,24.70
2019-02-27T16:01:38.504Z,24.00
2019-02-27T16:04:41.083Z,23.80
2019-02-27T16:07:48.474Z,24.20
2019-02-27T16:10:54.581Z,24.20
2019-02-27T16:13:52.184Z,25.20
2019-02-27T16:16:54.204Z,25.20
2019-02-27T16:19:57.244Z,25.30
2019-02-27T16:23:04.256Z,24.80
2019-02-27T16:26:03.730Z,24.80
2019-02-27T16:29:05.412Z,24.60
2019-02-27T16:32:07.016Z,24.30
2019-02-27T16:35:09.171Z,23.30
2019-02-27T16:38:13.043Z,23.50
2019-02-27T16:41:16.279Z,23.50
2019-02-27T16:44:21.672Z,25.10
2019-02-27T16:47:23.586Z,25.30
2019-02-27T16:50:27.369Z,25.10
2019-02-27T16:53:28.252Z,24.40
2019-02-27T16:56:29.739Z,26.00
2019-02-27T16:59:31.287Z,27.40
2019-02-27T17:02:35.477Z,28.60
2019-02-27T17:05:36.920Z,29.50
2019-02-27T17:08:38.828Z,29.90
2019-02-27T17:11:40.735Z,30.00
2019-02-27T17:14:43.286Z,31.00
2019-02-27T17:17:45.149Z,31.70
2019-02-27T17:20:47.359Z,32.10
2019-02-27T17:23:48.967Z,32.40
2019-02-27T17:26:50.472Z,32.60
2019-02-27T17:29:52.015Z,32.70
2019-02-27T17:32:54.593Z,33.10
2019-02-27T17:35:59.244Z,33.30
2019-02-27T17:38:59.905Z,33.40
2019-02-27T17:42:01.443Z,33.60
2019-02-27T17:45:02.955Z,33.90
2019-02-27T17:48:05.046Z,34.00
2019-02-27T17:51:06.742Z,34.10
2019-02-27T17:54:08.194Z,34.30
2019-02-27T17:57:09.706Z,34.40
2019-02-27T18:00:21.714Z,34.60
2019-02-27T18:03:24.965Z,34.80
2019-02-27T18:06:26.545Z,34.90
2019-02-27T18:09:28.106Z,35.20
2019-02-27T18:12:30.081Z,35.50
2019-02-27T18:15:31.666Z,35.60
2019-02-27T18:18:33.271Z,36.00
2019-02-27T18:21:35.099Z,36.30
2019-02-27T18:24:36.694Z,36.40
2019-02-27T18:27:38.254Z,36.40
2019-02-27T18:30:39.906Z,36.60
2019-02-27T18:33:41.936Z,36.80
2019-02-27T18:36:46.366Z,37.00
2019-02-27T18:39:59.960Z,37.10
2019-02-27T18:43:03.597Z,37.20
2019-02-27T18:46:06.091Z,37.30
2019-02-27T18:49:07.767Z,37.50
2019-02-27T18:52:09.522Z,37.50
2019-02-27T18:55:13.781Z,37.70
2019-02-27T18:58:18.243Z,37.70
2019-02-27T19:01:19.324Z,37.90
2019-02-27T19:04:21.117Z,38.00
2019-02-27T19:07:22.794Z,38.10
2019-02-27T19:10:24.969Z,38.30
2019-02-27T19:13:26.609Z,38.50
2019-02-27T19:16:28.380Z,38.60
2019-02-27T19:19:31.525Z,39.00
2019-02-27T19:22:33.577Z,39.10
2019-02-27T19:25:37.292Z,39.10
2019-02-27T19:28:38.470Z,39.20
2019-02-27T19:31:40.170Z,39.20
2019-02-27T19:34:44.451Z,39.20
2019-02-27T19:37:45.544Z,39.40
2019-02-27T19:40:47.207Z,39.50
2019-02-27T19:43:48.817Z,39.90
2019-02-27T19:46:50.685Z,40.10
2019-02-27T19:49:52.415Z,40.10
2019-02-27T19:52:54.537Z,40.40
2019-02-27T19:56:00.672Z,40.50
2019-02-27T19:58:59.740Z,40.50
2019-02-27T20:02:01.914Z,40.60
2019-02-27T20:05:03.888Z,40.60
2019-02-27T20:08:09.818Z,40.60
2019-02-27T20:11:09.704Z,40.60
2019-02-27T20:14:11.347Z,40.60
2019-02-27T20:17:13.092Z,40.70
2019-02-27T20:20:15.812Z,40.70
2019-02-27T20:23:17.510Z,40.70
2019-02-27T20:26:21.030Z,41.10
2019-02-27T20:29:23.057Z,41.20
2019-02-27T20:32:28.379Z,41.30
2019-02-27T20:35:28.870Z,41.50
2019-02-27T20:42:03.985Z,41.60
2019-02-27T20:45:08.640Z,41.60
2019-02-27T20:48:10.089Z,41.70
2019-02-27T20:51:11.946Z,41.90
2019-02-27T20:54:13.613Z,42.00
2019-02-27T20:57:15.258Z,42.00
2019-02-27T21:00:17.613Z,42.10
2019-02-27T21:03:19.238Z,42.20
2019-02-27T21:06:21.118Z,42.90
2019-02-27T21:09:22.733Z,42.30
2019-02-27T21:12:24.342Z,42.30
2019-02-27T21:15:29.337Z,42.40
2019-02-27T21:18:32.594Z,42.50
2019-02-27T21:21:33.391Z,42.50
2019-02-27T21:24:37.309Z,42.70
2019-02-27T21:27:38.142Z,42.70
2019-02-27T21:30:39.722Z,42.70
2019-02-27T21:33:42.376Z,42.80
2019-02-27T21:36:44.878Z,42.80
2019-02-27T21:39:46.357Z,42.80
2019-02-27T21:42:50.882Z,43.40
2019-02-27T21:45:51.063Z,42.90
2019-02-27T21:48:52.567Z,43.00
2019-02-27T21:51:54.197Z,43.10
2019-02-27T21:54:55.762Z,43.00
2019-02-27T21:57:58.151Z,43.10
2019-02-27T22:01:00.423Z,43.10
2019-02-27T22:04:01.967Z,43.20
2019-02-27T22:07:05.037Z,43.20
2019-02-27T22:10:09.160Z,43.20
2019-02-27T22:13:10.936Z,43.30
2019-02-27T22:16:12.429Z,43.30
2019-02-27T22:19:13.899Z,43.40
2019-02-27T22:22:15.349Z,43.40
2019-02-27T22:25:17.232Z,43.40
2019-02-27T22:28:20.026Z,43.50
2019-02-27T22:31:22.144Z,43.50
2019-02-27T22:34:23.638Z,43.60
2019-02-27T22:37:25.122Z,43.60
2019-02-27T22:40:28.113Z,43.70
2019-02-27T22:43:29.596Z,43.70
2019-02-27T22:46:31.253Z,43.80
2019-02-27T22:49:32.899Z,44.30
2019-02-27T22:52:34.333Z,43.90
2019-02-27T22:55:36.418Z,44.00
2019-02-27T22:58:37.957Z,43.90
2019-02-27T23:01:50.433Z,44.00
2019-02-27T23:04:51.062Z,43.90
2019-02-27T23:07:52.917Z,44.00
2019-02-27T23:10:54.393Z,44.00
2019-02-27T23:13:55.845Z,44.00
2019-02-27T23:17:00.636Z,44.10
2019-02-27T23:20:00.551Z,44.10
2019-02-27T23:23:03.313Z,44.20
2019-02-27T23:26:04.946Z,44.30
2019-02-27T23:29:06.542Z,44.20
2019-02-27T23:32:07.975Z,44.20
2019-02-27T23:35:09.563Z,44.20
2019-02-27T23:38:11.370Z,44.30
2019-02-27T23:41:13.159Z,44.40
2019-02-27T23:44:14.562Z,44.30
2019-02-27T23:47:15.995Z,44.30
2019-02-27T23:50:17.409Z,44.40
2019-02-27T23:53:18.826Z,44.50
2019-02-27T23:56:21.211Z,44.50
2019-02-27T23:59:22.596Z,44.40
